Wetterdaten: Mittwoch, 21.02.2018
Datum Zeit Temp. Auen Feucht Auen Luftdruck Regen Richtung Richtung Windben
21.02.2018 00:00 -1,3 C 94 % 1017,6 hPa 0,0 mm S-SW 211 1,6 km/h (1 Bft)
21.02.2018 00:05 -1,4 C 94 % 1017,5 hPa 0,0 mm S-SW 211 3,2 km/h (1 Bft)
21.02.2018 00:10 -1,3 C 94 % 1017,5 hPa 0,0 mm S-SW 211 1,6 km/h (1 Bft)
21.02.2018 00:15 -1,4 C 94 % 1017,5 hPa 0,0 mm S-SW 211 0,0 km/h (0 Bft)
21.02.2018 00:20 -1,3 C 94 % 1017,5 hPa 0,0 mm S-SW 211 0,0 km/h (0 Bft)
21.02.2018 00:25 -1,3 C 94 % 1017,5 hPa 0,0 mm S-SW 211 0,0 km/h (0 Bft)
21.02.2018 00:30 -1,3 C 94 % 1017,4 hPa 0,0 mm S-SW 211 1,6 km/h (1 Bft)
21.02.2018 00:35 -1,3 C 95 % 1017,5 hPa 0,2 mm S-SW 211 1,6 km/h (1 Bft)
21.02.2018 00:40 -1,2 C 94 % 1017,5 hPa 0,0 mm S-SW 211 0,0 km/h (0 Bft)
21.02.2018 00:45 -1,2 C 94 % 1017,5 hPa 0,0 mm S-SW 211 0,0 km/h (0 Bft)
21.02.2018 00:50 -1,2 C 94 % 1017,5 hPa 0,0 mm S-SW 211 0,0 km/h (0 Bft)
21.02.2018 00:55 -1,2 C 94 % 1017,6 hPa 0,0 mm S-SW 211 3,2 km/h (1 Bft)
21.02.2018 01:00 -1,2 C 94 % 1017,5 hPa 0,0 mm S-SW 211 3,2 km/h (1 Bft)
21.02.2018 01:05 -1,2 C 94 % 1017,6 hPa 0,0 mm S-SW 211 3,2 km/h (1 Bft)
21.02.2018 01:10 -1,2 C 94 % 1017,5 hPa 0,0 mm S-SW 211 3,2 km/h (1 Bft)
21.02.2018 01:15 -1,2 C 94 % 1017,5 hPa 0,0 mm S-SW 211 4,8 km/h (1 Bft)
21.02.2018 01:20 -1,2 C 94 % 1017,6 hPa 0,0 mm S-SW 211 3,2 km/h (1 Bft)
21.02.2018 01:25 -1,2 C 94 % 1017,6 hPa 0,0 mm S-SW 211 3,2 km/h (1 Bft)
21.02.2018 01:30 -1,2 C 94 % 1017,5 hPa 0,0 mm S-SW 211 4,8 km/h (1 Bft)
21.02.2018 01:35 -1,2 C 94 % 1017,5 hPa 0,0 mm S-SW 211 3,2 km/h (1 Bft)
21.02.2018 01:40 -1,2 C 94 % 1017,5 hPa 0,0 mm S-SW 211 3,2 km/h (1 Bft)
21.02.2018 01:45 -1,2 C 94 % 1017,5 hPa 0,0 mm S-SW 211 3,2 km/h (1 Bft)
21.02.2018 01:50 -1,2 C 94 % 1017,5 hPa 0,0 mm S-SW 212 3,2 km/h (1 Bft)
21.02.2018 01:55 -1,2 C 94 % 1017,6 hPa 0,0 mm S-SW 212 4,8 km/h (1 Bft)
21.02.2018 02:00 -1,2 C 94 % 1017,6 hPa 0,0 mm S-SW 212 3,2 km/h (1 Bft)
21.02.2018 02:05 -1,2 C 94 % 1017,5 hPa 0,0 mm S-SW 212 3,2 km/h (1 Bft)
21.02.2018 02:10 -1,2 C 94 % 1017,5 hPa 0,0 mm S-SW 212 3,2 km/h (1 Bft)
21.02.2018 02:15 -1,2 C 94 % 1017,6 hPa 0,0 mm S-SW 213 4,8 km/h (1 Bft)
21.02.2018 02:20 -1,2 C 94 % 1017,6 hPa 0,0 mm S-SW 213 3,2 km/h (1 Bft)
21.02.2018 02:25 -1,2 C 94 % 1017,6 hPa 0,0 mm SW 216 4,8 km/h (1 Bft)
21.02.2018 02:30 -1,2 C 94 % 1017,6 hPa 0,0 mm SW 217 3,2 km/h (1 Bft)
21.02.2018 02:35 -1,2 C 94 % 1017,6 hPa 0,0 mm SW 217 3,2 km/h (1 Bft)
21.02.2018 02:40 -1,2 C 94 % 1017,6 hPa 0,0 mm SW 217 0,0 km/h (0 Bft)
21.02.2018 02:45 -1,2 C 94 % 1017,6 hPa 0,0 mm SW 217 1,6 km/h (1 Bft)
21.02.2018 02:50 -1,3 C 94 % 1017,5 hPa 0,0 mm W-SW 240 4,8 km/h (1 Bft)
21.02.2018 02:55 -1,3 C 94 % 1017,5 hPa 0,0 mm W-SW 240 1,6 km/h (1 Bft)
21.02.2018 03:00 -1,3 C 94 % 1017,5 hPa 0,0 mm W-SW 240 0,0 km/h (0 Bft)
21.02.2018 03:05 -1,3 C 94 % 1017,4 hPa 0,0 mm W-SW 240 0,0 km/h (0 Bft)
21.02.2018 03:10 -1,3 C 94 % 1017,4 hPa 0,0 mm W-SW 240 0,0 km/h (0 Bft)
21.02.2018 03:15 -1,3 C 94 % 1017,4 hPa 0,0 mm W-SW 240 0,0 km/h (0 Bft)
21.02.2018 03:20 -1,3 C 94 % 1017,5 hPa 0,0 mm W-SW 240 0,0 km/h (0 Bft)
21.02.2018 03:25 -1,3 C 94 % 1017,6 hPa 0,0 mm W-SW 240 0,0 km/h (0 Bft)
21.02.2018 03:30 -1,3 C 94 % 1017,6 hPa 0,0 mm W-SW 240 0,0 km/h (0 Bft)
21.02.2018 03:35 -1,3 C 94 % 1017,6 hPa 0,0 mm W-SW 240 0,0 km/h (0 Bft)
21.02.2018 03:40 -1,3 C 94 % 1017,6 hPa 0,0 mm W-SW 240 0,0 km/h (0 Bft)
21.02.2018 03:45 -1,4 C 94 % 1017,6 hPa 0,0 mm W-SW 240 0,0 km/h (0 Bft)
21.02.2018 03:50 -1,4 C 94 % 1017,7 hPa 0,0 mm W-SW 240 0,0 km/h (0 Bft)
21.02.2018 03:55 -1,4 C 94 % 1017,7 hPa 0,0 mm W-SW 240 0,0 km/h (0 Bft)
21.02.2018 04:00 -1,5 C 95 % 1017,7 hPa 0,0 mm W-SW 240 0,0 km/h (0 Bft)
21.02.2018 04:05 -1,5 C 95 % 1017,7 hPa 0,0 mm W-SW 240 0,0 km/h (0 Bft)
21.02.2018 04:10 -1,4 C 95 % 1017,7 hPa 0,0 mm W-SW 240 3,2 km/h (1 Bft)
21.02.2018 04:15 -1,4 C 95 % 1017,7 hPa 0,0 mm W-SW 240 0,0 km/h (0 Bft)
21.02.2018 04:20 -1,4 C 95 % 1017,7 hPa 0,0 mm W-SW 240 0,0 km/h (0 Bft)
21.02.2018 04:25 -1,4 C 95 % 1017,7 hPa 0,0 mm W-SW 240 0,0 km/h (0 Bft)
21.02.2018 04:30 -1,4 C 94 % 1017,7 hPa 0,0 mm W-SW 240 0,0 km/h (0 Bft)
21.02.2018 04:35 -1,4 C 94 % 1017,7 hPa 0,0 mm W-SW 240 0,0 km/h (0 Bft)
21.02.2018 04:40 -1,4 C 94 % 1017,8 hPa 0,0 mm W-SW 240 0,0 km/h (0 Bft)
21.02.2018 04:45 -1,4 C 94 % 1017,7 hPa 0,0 mm W-SW 240 0,0 km/h (0 Bft)
21.02.2018 04:50 -1,4 C 94 % 1017,8 hPa 0,0 mm W-SW 240 1,6 km/h (1 Bft)
21.02.2018 04:55 -1,3 C 94 % 1017,8 hPa 0,0 mm W-SW 240 0,0 km/h (0 Bft)
21.02.2018 05:00 -1,3 C 94 % 1017,8 hPa 0,0 mm W-SW 240 0,0 km/h (0 Bft)
21.02.2018 05:05 -1,4 C 94 % 1017,9 hPa 0,0 mm W-SW 240 0,0 km/h (0 Bft)
21.02.2018 05:10 -1,4 C 94 % 1017,9 hPa 0,0 mm W-SW 240 0,0 km/h (0 Bft)
21.02.2018 05:15 -1,4 C 93 % 1018,0 hPa 0,0 mm W-SW 240 0,0 km/h (0 Bft)
21.02.2018 05:20 -1,3 C 93 % 1017,9 hPa 0,0 mm W-SW 240 0,0 km/h (0 Bft)
21.02.2018 05:25 -1,3 C 93 % 1017,9 hPa 0,0 mm W-SW 240 0,0 km/h (0 Bft)
21.02.2018 05:30 -1,3 C 93 % 1018,1 hPa 0,0 mm W-SW 240 0,0 km/h (0 Bft)
21.02.2018 05:35 -1,2 C 93 % 1018,1 hPa 0,0 mm W-SW 240 0,0 km/h (0 Bft)
21.02.2018 05:40 -1,3 C 93 % 1018,1 hPa 0,0 mm W-SW 240 1,6 km/h (1 Bft)
21.02.2018 05:45 -1,3 C 94 % 1018,1 hPa 0,0 mm W-SW 240 0,0 km/h (0 Bft)
21.02.2018 05:50 -1,4 C 94 % 1018,1 hPa 0,0 mm W-SW 240 0,0 km/h (0 Bft)
21.02.2018 05:55 -1,4 C 94 % 1018,2 hPa 0,0 mm W-SW 240 0,0 km/h (0 Bft)
21.02.2018 06:00 -1,4 C 94 % 1018,3 hPa 0,0 mm W-SW 240 0,0 km/h (0 Bft)
21.02.2018 06:05 -1,4 C 94 % 1018,3 hPa 0,0 mm W-SW 240 0,0 km/h (0 Bft)
21.02.2018 06:10 -1,4 C 94 % 1018,3 hPa 0,0 mm W-SW 240 0,0 km/h (0 Bft)
21.02.2018 06:15 -1,4 C 94 % 1018,3 hPa 0,0 mm W-SW 240 0,0 km/h (0 Bft)
21.02.2018 06:20 -1,4 C 94 % 1018,3 hPa 0,0 mm W-SW 240 0,0 km/h (0 Bft)
21.02.2018 06:25 -1,5 C 94 % 1018,4 hPa 0,0 mm W-SW 240 1,6 km/h (1 Bft)
21.02.2018 06:30 -1,6 C 94 % 1018,4 hPa 0,0 mm W-SW 240 3,2 km/h (1 Bft)
21.02.2018 06:35 -1,6 C 94 % 1018,4 hPa 0,0 mm W-SW 257 4,8 km/h (1 Bft)
21.02.2018 06:40 -1,6 C 94 % 1018,4 hPa 0,0 mm W 259 4,8 km/h (1 Bft)
21.02.2018 06:45 -1,6 C 94 % 1018,5 hPa 0,0 mm W 259 3,2 km/h (1 Bft)
21.02.2018 06:50 -1,6 C 94 % 1018,5 hPa 0,0 mm W 259 0,0 km/h (0 Bft)
21.02.2018 06:55 -1,7 C 94 % 1018,6 hPa 0,0 mm W 259 0,0 km/h (0 Bft)
21.02.2018 07:00 -1,8 C 94 % 1018,6 hPa 0,0 mm W 259 0,0 km/h (0 Bft)
21.02.2018 07:05 -1,8 C 95 % 1018,6 hPa 0,0 mm W 259 0,0 km/h (0 Bft)
21.02.2018 07:10 -1,8 C 94 % 1018,7 hPa 0,0 mm W 259 0,0 km/h (0 Bft)
21.02.2018 07:15 -1,7 C 95 % 1018,8 hPa 0,0 mm W 259 0,0 km/h (0 Bft)
21.02.2018 07:20 -1,7 C 95 % 1018,8 hPa 0,0 mm W 259 0,0 km/h (0 Bft)
21.02.2018 07:25 -1,7 C 95 % 1018,7 hPa 0,0 mm W 259 0,0 km/h (0 Bft)
21.02.2018 07:30 -1,7 C 94 % 1018,8 hPa 0,0 mm W 259 0,0 km/h (0 Bft)
21.02.2018 07:35 -1,8 C 95 % 1018,8 hPa 0,0 mm W 259 0,0 km/h (0 Bft)
21.02.2018 07:40 -2,0 C 95 % 1018,9 hPa 0,0 mm W 259 0,0 km/h (0 Bft)
21.02.2018 07:45 -1,9 C 95 % 1018,8 hPa 0,0 mm W 259 0,0 km/h (0 Bft)
21.02.2018 07:50 -1,8 C 95 % 1018,9 hPa 0,0 mm W 259 0,0 km/h (0 Bft)
21.02.2018 07:55 -1,8 C 95 % 1019,0 hPa 0,0 mm W 259 0,0 km/h (0 Bft)
21.02.2018 08:00 -1,8 C 95 % 1019,1 hPa 0,0 mm W 259 0,0 km/h (0 Bft)
21.02.2018 08:05 -1,8 C 95 % 1019,1 hPa 0,0 mm W 259 0,0 km/h (0 Bft)
21.02.2018 08:10 -1,8 C 95 % 1019,1 hPa 0,0 mm W 259 0,0 km/h (0 Bft)
21.02.2018 08:15 -1,8 C 95 % 1019,1 hPa 0,0 mm W 259 0,0 km/h (0 Bft)
21.02.2018 08:20 -1,8 C 95 % 1019,1 hPa 0,0 mm W 259 0,0 km/h (0 Bft)
21.02.2018 08:25 -1,8 C 95 % 1019,2 hPa 0,0 mm W 259 0,0 km/h (0 Bft)
21.02.2018 08:30 -1,8 C 95 % 1019,3 hPa 0,0 mm W 259 0,0 km/h (0 Bft)
21.02.2018 08:35 -1,8 C 94 % 1019,3 hPa 0,0 mm W 259 0,0 km/h (0 Bft)
21.02.2018 08:40 -1,7 C 94 % 1019,2 hPa 0,0 mm W 259 0,0 km/h (0 Bft)
21.02.2018 08:45 -1,7 C 94 % 1019,3 hPa 0,0 mm W 259 0,0 km/h (0 Bft)
21.02.2018 08:50 -1,7 C 94 % 1019,4 hPa 0,0 mm W 259 0,0 km/h (0 Bft)
21.02.2018 08:55 -1,6 C 94 % 1019,3 hPa 0,2 mm W 259 0,0 km/h (0 Bft)
21.02.2018 09:00 -1,6 C 94 % 1019,4 hPa 0,0 mm W 259 0,0 km/h (0 Bft)
21.02.2018 09:05 -1,7 C 94 % 1019,4 hPa 0,0 mm W 259 0,0 km/h (0 Bft)
21.02.2018 09:10 -1,7 C 94 % 1019,3 hPa 0,0 mm W 259 0,0 km/h (0 Bft)
21.02.2018 09:15 -1,7 C 93 % 1019,4 hPa 0,0 mm W 259 0,0 km/h (0 Bft)
21.02.2018 09:20 -1,6 C 94 % 1019,4 hPa 0,0 mm W 259 0,0 km/h (0 Bft)
21.02.2018 09:25 -1,6 C 93 % 1019,4 hPa 0,0 mm W 259 0,0 km/h (0 Bft)
21.02.2018 09:30 -1,5 C 93 % 1019,3 hPa 0,0 mm W 259 0,0 km/h (0 Bft)
21.02.2018 09:35 -1,5 C 93 % 1019,4 hPa 0,0 mm W 259 0,0 km/h (0 Bft)
21.02.2018 09:40 -1,6 C 92 % 1019,4 hPa 0,0 mm W 259 0,0 km/h (0 Bft)
21.02.2018 09:45 -1,6 C 93 % 1019,4 hPa 0,0 mm W 259 0,0 km/h (0 Bft)
21.02.2018 09:50 -1,6 C 92 % 1019,5 hPa 0,0 mm W 259 0,0 km/h (0 Bft)
21.02.2018 09:55 -1,6 C 93 % 1019,4 hPa 0,0 mm W 259 0,0 km/h (0 Bft)
21.02.2018 10:00 -1,5 C 92 % 1019,5 hPa 0,0 mm W 259 4,8 km/h (1 Bft)
21.02.2018 10:05 -1,4 C 92 % 1019,4 hPa 0,0 mm SO 134 6,4 km/h (2 Bft)
21.02.2018 10:10 -1,3 C 92 % 1019,4 hPa 0,0 mm SO 134 6,4 km/h (2 Bft)
21.02.2018 10:15 -1,3 C 92 % 1019,5 hPa 0,0 mm SO 134 6,4 km/h (2 Bft)
21.02.2018 10:20 -1,3 C 92 % 1019,5 hPa 0,0 mm SO 134 6,4 km/h (2 Bft)
21.02.2018 10:25 -1,2 C 91 % 1019,5 hPa 0,0 mm SO 131 6,4 km/h (2 Bft)
21.02.2018 10:30 -1,2 C 91 % 1019,5 hPa 0,0 mm SO 139 8,0 km/h (2 Bft)
21.02.2018 10:35 -1,2 C 91 % 1019,5 hPa 0,0 mm SO 142 6,4 km/h (2 Bft)
21.02.2018 10:40 -1,2 C 91 % 1019,5 hPa 0,0 mm SO 142 8,0 km/h (2 Bft)
21.02.2018 10:45 -1,2 C 90 % 1019,5 hPa 0,0 mm SO 142 6,4 km/h (2 Bft)
21.02.2018 10:50 -1,1 C 90 % 1019,4 hPa 0,0 mm O 96 4,8 km/h (1 Bft)
21.02.2018 10:55 -1,1 C 90 % 1019,4 hPa 0,0 mm O 84 11,3 km/h (2 Bft)
21.02.2018 11:00 -1,0 C 89 % 1019,4 hPa 0,0 mm NO 47 8,0 km/h (2 Bft)
21.02.2018 11:05 -0,9 C 88 % 1019,3 hPa 0,0 mm NO 34 6,4 km/h (2 Bft)
21.02.2018 11:10 -0,8 C 87 % 1019,3 hPa 0,0 mm N-NO 16 6,4 km/h (2 Bft)
21.02.2018 11:15 -0,7 C 87 % 1019,3 hPa 0,0 mm N-NO 28 6,4 km/h (2 Bft)
21.02.2018 11:20 -0,7 C 86 % 1019,2 hPa 0,0 mm NO 36 6,4 km/h (2 Bft)
21.02.2018 11:25 -0,7 C 87 % 1019,2 hPa 0,0 mm NO 36 4,8 km/h (1 Bft)
21.02.2018 11:30 -0,7 C 86 % 1019,2 hPa 0,0 mm NO 38 4,8 km/h (1 Bft)
21.02.2018 11:35 -0,7 C 85 % 1019,2 hPa 0,0 mm O-NO 78 4,8 km/h (1 Bft)
21.02.2018 11:40 -0,8 C 85 % 1019,2 hPa 0,0 mm O 101 8,0 km/h (2 Bft)
21.02.2018 11:45 -0,8 C 86 % 1019,1 hPa 0,0 mm O-SO 109 8,0 km/h (2 Bft)
21.02.2018 11:50 -0,8 C 85 % 1019,1 hPa 0,0 mm SO 135 6,4 km/h (2 Bft)
21.02.2018 11:55 -0,8 C 86 % 1019,0 hPa 0,0 mm SO 135 6,4 km/h (2 Bft)
21.02.2018 12:00 -0,8 C 86 % 1019,0 hPa 0,0 mm SO 135 6,4 km/h (2 Bft)
21.02.2018 12:05 -0,8 C 86 % 1019,0 hPa 0,0 mm SO 135 6,4 km/h (2 Bft)
21.02.2018 12:10 -0,7 C 86 % 1018,9 hPa 0,0 mm SO 135 6,4 km/h (2 Bft)
21.02.2018 12:15 -0,7 C 86 % 1018,9 hPa 0,0 mm O 101 9,7 km/h (2 Bft)
21.02.2018 12:20 -0,7 C 85 % 1018,9 hPa 0,0 mm O-SO 118 6,4 km/h (2 Bft)
21.02.2018 12:25 -0,7 C 86 % 1018,8 hPa 0,0 mm SO 138 9,7 km/h (2 Bft)
21.02.2018 12:30 -0,6 C 85 % 1018,9 hPa 0,0 mm O-SO 121 9,7 km/h (2 Bft)
21.02.2018 12:35 -0,5 C 85 % 1018,9 hPa 0,0 mm O-SO 102 9,7 km/h (2 Bft)
21.02.2018 12:40 -0,5 C 85 % 1018,9 hPa 0,0 mm SO 124 11,3 km/h (2 Bft)
21.02.2018 12:45 -0,4 C 84 % 1018,9 hPa 0,0 mm O-SO 122 11,3 km/h (2 Bft)
21.02.2018 12:50 -0,4 C 85 % 1018,9 hPa 0,0 mm SO 140 8,0 km/h (2 Bft)
21.02.2018 12:55 -0,3 C 85 % 1018,9 hPa 0,0 mm O-SO 120 8,0 km/h (2 Bft)
21.02.2018 13:00 -0,3 C 84 % 1018,8 hPa 0,0 mm O-SO 121 9,7 km/h (2 Bft)
21.02.2018 13:05 -0,3 C 84 % 1018,7 hPa 0,0 mm O-SO 116 8,0 km/h (2 Bft)
21.02.2018 13:10 -0,2 C 85 % 1018,7 hPa 0,0 mm SO 139 11,3 km/h (2 Bft)
21.02.2018 13:15 -0,2 C 85 % 1018,8 hPa 0,0 mm SO 125 8,0 km/h (2 Bft)
21.02.2018 13:20 -0,2 C 84 % 1018,7 hPa 0,0 mm SO 131 8,0 km/h (2 Bft)
21.02.2018 13:25 -0,2 C 84 % 1018,7 hPa 0,0 mm SO 128 11,3 km/h (2 Bft)
21.02.2018 13:30 -0,3 C 84 % 1018,6 hPa 0,0 mm O-SO 114 9,7 km/h (2 Bft)
21.02.2018 13:35 -0,2 C 84 % 1018,6 hPa 0,0 mm O-SO 111 9,7 km/h (2 Bft)
21.02.2018 13:40 -0,1 C 85 % 1018,6 hPa 0,0 mm O 99 8,0 km/h (2 Bft)
21.02.2018 13:45 0,0 C 85 % 1018,6 hPa 0,0 mm SO 126 9,7 km/h (2 Bft)
21.02.2018 13:50 0,0 C 85 % 1018,6 hPa 0,0 mm O-SO 109 9,7 km/h (2 Bft)
21.02.2018 13:55 -0,1 C 84 % 1018,6 hPa 0,0 mm O-SO 108 9,7 km/h (2 Bft)
21.02.2018 14:00 0,0 C 85 % 1018,5 hPa 0,0 mm O-SO 118 12,9 km/h (3 Bft)
21.02.2018 14:05 -0,1 C 84 % 1018,4 hPa 0,0 mm SO 130 9,7 km/h (2 Bft)
21.02.2018 14:10 -0,1 C 84 % 1018,4 hPa 0,0 mm SO 128 9,7 km/h (2 Bft)
21.02.2018 14:15 -0,1 C 85 % 1018,4 hPa 0,0 mm O 96 11,3 km/h (2 Bft)
21.02.2018 14:20 -0,1 C 85 % 1018,3 hPa 0,0 mm O-SO 105 11,3 km/h (2 Bft)
21.02.2018 14:25 0,1 C 85 % 1018,3 hPa 0,0 mm O-SO 104 8,0 km/h (2 Bft)
21.02.2018 14:30 0,1 C 85 % 1018,3 hPa 0,0 mm O 88 9,7 km/h (2 Bft)
21.02.2018 14:35 0,1 C 86 % 1018,3 hPa 0,0 mm O-SO 105 9,7 km/h (2 Bft)
21.02.2018 14:40 -0,1 C 84 % 1018,3 hPa 0,0 mm O-SO 106 9,7 km/h (2 Bft)
21.02.2018 14:45 -0,1 C 85 % 1018,2 hPa 0,0 mm O-SO 117 6,4 km/h (2 Bft)
21.02.2018 14:50 -0,1 C 85 % 1018,3 hPa 0,0 mm O 101 8,0 km/h (2 Bft)
21.02.2018 14:55 -0,1 C 85 % 1018,3 hPa 0,0 mm O-SO 111 8,0 km/h (2 Bft)
21.02.2018 15:00 0,0 C 86 % 1018,3 hPa 0,0 mm O-SO 103 12,9 km/h (3 Bft)
21.02.2018 15:05 0,1 C 85 % 1018,3 hPa 0,0 mm O-NO 59 12,9 km/h (3 Bft)
21.02.2018 15:10 0,1 C 86 % 1018,3 hPa 0,0 mm O 92 14,5 km/h (3 Bft)
21.02.2018 15:15 0,1 C 86 % 1018,3 hPa 0,0 mm O-NO 78 11,3 km/h (2 Bft)
21.02.2018 15:20 -0,1 C 85 % 1018,3 hPa 0,0 mm O-NO 73 9,7 km/h (2 Bft)
21.02.2018 15:25 -0,1 C 86 % 1018,3 hPa 0,0 mm O-NO 67 11,3 km/h (2 Bft)
21.02.2018 15:30 -0,2 C 86 % 1018,3 hPa 0,0 mm NO 50 11,3 km/h (2 Bft)
21.02.2018 15:35 -0,2 C 86 % 1018,3 hPa 0,0 mm O-NO 72 8,0 km/h (2 Bft)
21.02.2018 15:40 -0,2 C 86 % 1018,4 hPa 0,0 mm O-NO 59 8,0 km/h (2 Bft)
21.02.2018 15:45 -0,3 C 86 % 1018,4 hPa 0,0 mm NO 49 8,0 km/h (2 Bft)
21.02.2018 15:50 -0,4 C 86 % 1018,4 hPa 0,0 mm O 80 11,3 km/h (2 Bft)
21.02.2018 15:55 -0,4 C 85 % 1018,4 hPa 0,0 mm N 5 14,5 km/h (3 Bft)
21.02.2018 16:00 -0,4 C 85 % 1018,6 hPa 0,0 mm N-NO 32 8,0 km/h (2 Bft)
21.02.2018 16:05 -0,4 C 85 % 1018,5 hPa 0,0 mm O-NO 57 4,8 km/h (1 Bft)
21.02.2018 16:10 -0,5 C 85 % 1018,5 hPa 0,0 mm O-NO 63 9,7 km/h (2 Bft)
21.02.2018 16:15 -0,6 C 86 % 1018,4 hPa 0,0 mm O-NO 69 9,7 km/h (2 Bft)
21.02.2018 16:20 -0,6 C 86 % 1018,5 hPa 0,0 mm O 84 8,0 km/h (2 Bft)
21.02.2018 16:25 -0,7 C 87 % 1018,5 hPa 0,0 mm O 86 11,3 km/h (2 Bft)
21.02.2018 16:30 -0,7 C 87 % 1018,4 hPa 0,0 mm O 92 8,0 km/h (2 Bft)
21.02.2018 16:35 -0,7 C 87 % 1018,7 hPa 0,0 mm O-SO 115 8,0 km/h (2 Bft)
21.02.2018 16:40 -0,7 C 88 % 1018,7 hPa 0,0 mm O 92 9,7 km/h (2 Bft)
21.02.2018 16:45 -0,8 C 88 % 1018,7 hPa 0,0 mm O 92 11,3 km/h (2 Bft)
21.02.2018 16:50 -0,8 C 88 % 1018,8 hPa 0,0 mm O 95 12,9 km/h (3 Bft)
21.02.2018 16:55 -0,8 C 88 % 1018,9 hPa 0,0 mm O 92 9,7 km/h (2 Bft)
21.02.2018 17:00 -0,8 C 89 % 1018,9 hPa 0,0 mm O-SO 111 9,7 km/h (2 Bft)
21.02.2018 17:05 -0,9 C 89 % 1018,8 hPa 0,0 mm O 86 9,7 km/h (2 Bft)
21.02.2018 17:10 -0,9 C 89 % 1018,9 hPa 0,0 mm O 97 8,0 km/h (2 Bft)
21.02.2018 17:15 -1,0 C 89 % 1018,9 hPa 0,0 mm O 79 9,7 km/h (2 Bft)
21.02.2018 17:20 -1,0 C 89 % 1018,8 hPa 0,0 mm O 80 9,7 km/h (2 Bft)
21.02.2018 17:25 -1,1 C 89 % 1018,8 hPa 0,0 mm O 80 8,0 km/h (2 Bft)
21.02.2018 17:30 -1,1 C 90 % 1019,0 hPa 0,0 mm O-NO 75 8,0 km/h (2 Bft)
21.02.2018 17:35 -1,2 C 90 % 1019,0 hPa 0,0 mm O-NO 65 8,0 km/h (2 Bft)
21.02.2018 17:40 -1,2 C 90 % 1019,1 hPa 0,0 mm O-NO 69 8,0 km/h (2 Bft)
21.02.2018 17:45 -1,3 C 90 % 1019,0 hPa 0,0 mm O-NO 65 6,4 km/h (2 Bft)
21.02.2018 17:50 -1,3 C 90 % 1019,1 hPa 0,0 mm O-NO 65 3,2 km/h (1 Bft)
21.02.2018 17:55 -1,3 C 90 % 1019,1 hPa 0,0 mm O-NO 65 4,8 km/h (1 Bft)
21.02.2018 18:00 -1,2 C 90 % 1019,1 hPa 0,0 mm O-SO 118 8,0 km/h (2 Bft)
21.02.2018 18:05 -1,3 C 90 % 1019,1 hPa 0,0 mm SO 128 6,4 km/h (2 Bft)
21.02.2018 18:10 -1,4 C 90 % 1019,2 hPa 0,0 mm O-SO 114 8,0 km/h (2 Bft)
21.02.2018 18:15 -1,4 C 90 % 1019,2 hPa 0,0 mm SO 126 6,4 km/h (2 Bft)
21.02.2018 18:20 -1,4 C 91 % 1019,2 hPa 0,0 mm SO 134 6,4 km/h (2 Bft)
21.02.2018 18:25 -1,4 C 91 % 1019,2 hPa 0,0 mm SO 134 4,8 km/h (1 Bft)
21.02.2018 18:30 -1,4 C 91 % 1019,3 hPa 0,0 mm SO 144 6,4 km/h (2 Bft)
21.02.2018 18:35 -1,4 C 91 % 1019,2 hPa 0,0 mm SO 134 12,9 km/h (3 Bft)
21.02.2018 18:40 -1,4 C 91 % 1019,2 hPa 0,0 mm SO 125 8,0 km/h (2 Bft)
21.02.2018 18:45 -1,4 C 90 % 1019,3 hPa 0,0 mm O-SO 119 11,3 km/h (2 Bft)
21.02.2018 18:50 -1,4 C 90 % 1019,4 hPa 0,0 mm O 101 11,3 km/h (2 Bft)
21.02.2018 18:55 -1,4 C 90 % 1019,2 hPa 0,0 mm O 101 12,9 km/h (3 Bft)
21.02.2018 19:00 -1,4 C 91 % 1019,3 hPa 0,0 mm O-SO 115 14,5 km/h (3 Bft)
21.02.2018 19:05 -1,5 C 91 % 1019,3 hPa 0,0 mm O-SO 108 12,9 km/h (3 Bft)
21.02.2018 19:10 -1,6 C 91 % 1019,3 hPa 0,0 mm O 84 11,3 km/h (2 Bft)
21.02.2018 19:15 -1,5 C 91 % 1019,4 hPa 0,0 mm O 81 12,9 km/h (3 Bft)
21.02.2018 19:20 -1,6 C 91 % 1019,2 hPa 0,0 mm O 95 11,3 km/h (2 Bft)
21.02.2018 19:25 -1,6 C 92 % 1019,2 hPa 0,0 mm O-NO 69 11,3 km/h (2 Bft)
21.02.2018 19:30 -1,7 C 92 % 1019,2 hPa 0,0 mm O-NO 77 12,9 km/h (3 Bft)
21.02.2018 19:35 -1,7 C 92 % 1019,1 hPa 0,0 mm O 94 11,3 km/h (2 Bft)
21.02.2018 19:40 -1,7 C 92 % 1019,2 hPa 0,0 mm O 90 11,3 km/h (2 Bft)
21.02.2018 19:45 -1,7 C 92 % 1019,1 hPa 0,0 mm O-NO 64 8,0 km/h (2 Bft)
21.02.2018 19:50 -1,7 C 92 % 1019,2 hPa 0,0 mm O-NO 69 8,0 km/h (2 Bft)
21.02.2018 19:55 -1,7 C 92 % 1019,2 hPa 0,0 mm O-NO 65 9,7 km/h (2 Bft)
21.02.2018 20:00 -1,8 C 92 % 1019,2 hPa 0,0 mm O 98 11,3 km/h (2 Bft)
21.02.2018 20:05 -1,7 C 92 % 1019,3 hPa 0,0 mm O 84 9,7 km/h (2 Bft)
21.02.2018 20:10 -1,6 C 91 % 1019,3 hPa 0,0 mm O 86 9,7 km/h (2 Bft)
21.02.2018 20:15 -1,7 C 91 % 1019,3 hPa 0,0 mm O 86 4,8 km/h (1 Bft)
21.02.2018 20:20 -1,7 C 91 % 1019,4 hPa 0,0 mm O-SO 108 4,8 km/h (1 Bft)
21.02.2018 20:25 -1,8 C 91 % 1019,3 hPa 0,0 mm O-SO 108 4,8 km/h (1 Bft)
21.02.2018 20:30 -1,8 C 91 % 1019,3 hPa 0,0 mm O-SO 108 3,2 km/h (1 Bft)
21.02.2018 20:35 -1,8 C 91 % 1019,3 hPa 0,0 mm O-SO 108 0,0 km/h (0 Bft)
21.02.2018 20:40 -1,8 C 91 % 1019,3 hPa 0,0 mm O-SO 108 0,0 km/h (0 Bft)
21.02.2018 20:45 -1,7 C 91 % 1019,4 hPa 0,0 mm O-SO 108 0,0 km/h (0 Bft)
21.02.2018 20:50 -1,8 C 90 % 1019,4 hPa 0,0 mm SO 133 6,4 km/h (2 Bft)
21.02.2018 20:55 -1,7 C 90 % 1019,4 hPa 0,0 mm SO 133 4,8 km/h (1 Bft)
21.02.2018 21:00 -1,7 C 90 % 1019,4 hPa 0,0 mm SO 133 4,8 km/h (1 Bft)
21.02.2018 21:05 -1,7 C 90 % 1019,3 hPa 0,0 mm O-SO 122 6,4 km/h (2 Bft)
21.02.2018 21:10 -1,7 C 90 % 1019,2 hPa 0,0 mm O-SO 103 6,4 km/h (2 Bft)
21.02.2018 21:15 -1,6 C 90 % 1019,2 hPa 0,0 mm O 89 9,7 km/h (2 Bft)
21.02.2018 21:20 -1,6 C 89 % 1019,2 hPa 0,0 mm O-SO 110 11,3 km/h (2 Bft)
21.02.2018 21:25 -1,6 C 89 % 1019,2 hPa 0,0 mm O 96 4,8 km/h (1 Bft)
21.02.2018 21:30 -1,6 C 89 % 1019,2 hPa 0,0 mm O 90 8,0 km/h (2 Bft)
21.02.2018 21:35 -1,7 C 89 % 1019,2 hPa 0,0 mm O-NO 76 8,0 km/h (2 Bft)
21.02.2018 21:40 -1,7 C 89 % 1019,1 hPa 0,0 mm O-NO 63 11,3 km/h (2 Bft)
21.02.2018 21:45 -1,7 C 89 % 1019,1 hPa 0,0 mm O 90 12,9 km/h (3 Bft)
21.02.2018 21:50 -1,6 C 88 % 1019,1 hPa 0,0 mm O 89 11,3 km/h (2 Bft)
21.02.2018 21:55 -1,7 C 88 % 1019,1 hPa 0,0 mm O-SO 102 8,0 km/h (2 Bft)
21.02.2018 22:00 -1,7 C 89 % 1019,0 hPa 0,0 mm O 86 8,0 km/h (2 Bft)
21.02.2018 22:05 -1,7 C 89 % 1019,0 hPa 0,0 mm O 96 9,7 km/h (2 Bft)
21.02.2018 22:10 -1,7 C 89 % 1019,0 hPa 0,0 mm O 86 9,7 km/h (2 Bft)
21.02.2018 22:15 -1,7 C 89 % 1019,0 hPa 0,0 mm O 85 12,9 km/h (3 Bft)
21.02.2018 22:20 -1,8 C 89 % 1019,1 hPa 0,0 mm O-SO 107 8,0 km/h (2 Bft)
21.02.2018 22:25 -1,7 C 89 % 1019,0 hPa 0,0 mm O-NO 77 12,9 km/h (3 Bft)
21.02.2018 22:30 -1,7 C 89 % 1019,0 hPa 0,0 mm O 99 12,9 km/h (3 Bft)
21.02.2018 22:35 -1,7 C 89 % 1018,8 hPa 0,0 mm O 84 11,3 km/h (2 Bft)
21.02.2018 22:40 -1,7 C 88 % 1018,8 hPa 0,0 mm O 84 12,9 km/h (3 Bft)
21.02.2018 22:45 -1,7 C 88 % 1018,8 hPa 0,0 mm O-NO 70 11,3 km/h (2 Bft)
21.02.2018 22:50 -1,7 C 88 % 1018,7 hPa 0,0 mm O 84 14,5 km/h (3 Bft)
21.02.2018 22:55 -1,7 C 88 % 1018,7 hPa 0,0 mm O-NO 78 12,9 km/h (3 Bft)
21.02.2018 23:00 -1,7 C 88 % 1018,7 hPa 0,0 mm O 86 12,9 km/h (3 Bft)
21.02.2018 23:05 -1,7 C 87 % 1018,5 hPa 0,0 mm O 90 14,5 km/h (3 Bft)
21.02.2018 23:10 -1,8 C 87 % 1018,5 hPa 0,0 mm O-NO 74 14,5 km/h (3 Bft)
21.02.2018 23:15 -1,8 C 87 % 1018,4 hPa 0,0 mm O-SO 111 14,5 km/h (3 Bft)
21.02.2018 23:20 -1,7 C 87 % 1018,5 hPa 0,0 mm O-SO 103 11,3 km/h (2 Bft)
21.02.2018 23:25 -1,7 C 87 % 1018,4 hPa 0,0 mm O 87 12,9 km/h (3 Bft)
21.02.2018 23:30 -1,7 C 88 % 1018,5 hPa 0,0 mm O 79 12,9 km/h (3 Bft)
21.02.2018 23:35 -1,7 C 88 % 1018,5 hPa 0,0 mm O 85 12,9 km/h (3 Bft)
21.02.2018 23:40 -1,6 C 88 % 1018,4 hPa 0,0 mm O 92 17,7 km/h (3 Bft)
21.02.2018 23:45 -1,6 C 88 % 1018,4 hPa 0,0 mm O-NO 61 17,7 km/h (3 Bft)
21.02.2018 23:50 -1,6 C 88 % 1018,3 hPa 0,0 mm O-NO 69 17,7 km/h (3 Bft)
21.02.2018 23:55 -1,6 C 88 % 1018,4 hPa 0,0 mm O-NO 67 20,9 km/h (4 Bft)
_ Min-Zeit 07:45 12:45 00:30 - - - 00:15
Minimum _ -2,1 C 84 % 1017,4 hPa - - - 0,0 km/h (0 Bft)
_ Max-Zeit 14:35 00:35 09:50 00:35 - - 23:55
Maximum _ 0,2 C 95 % 1019,5 hPa 0,2 mm - - 20,9 km/h
O (4 Bft)
Durchschnitt _ -1,2 C 91 % 1018,6 hPa #0,4 mm O - 5,8 km/h (2 Bft)